createdAt,value
2022-08-18T00:00:24.882Z,24.74
2022-08-18T00:03:12.263Z,24.66
2022-08-18T00:06:16.924Z,24.70
2022-08-18T00:09:06.951Z,24.68
2022-08-18T00:11:53.258Z,24.64
2022-08-18T00:14:39.314Z,24.65
2022-08-18T00:17:25.630Z,24.64
2022-08-18T00:20:19.074Z,24.61
2022-08-18T00:23:10.286Z,24.54
2022-08-18T00:25:57.759Z,24.52
2022-08-18T00:28:44.994Z,24.47
2022-08-18T00:31:31.657Z,24.47
2022-08-18T00:34:20.055Z,24.45
2022-08-18T00:37:06.022Z,24.47
2022-08-18T00:39:54.007Z,24.40
2022-08-18T00:42:44.438Z,24.38
2022-08-18T00:45:36.270Z,24.40
2022-08-18T00:48:23.933Z,24.38
2022-08-18T00:51:21.394Z,24.30
2022-08-18T00:54:11.512Z,24.33
2022-08-18T00:57:01.406Z,24.29
2022-08-18T01:00:20.197Z,24.29
2022-08-18T01:03:11.454Z,24.28
2022-08-18T01:06:02.244Z,24.25
2022-08-18T01:08:48.385Z,24.21
2022-08-18T01:11:37.053Z,24.22
2022-08-18T01:14:22.905Z,24.18
2022-08-18T01:17:30.806Z,24.16
2022-08-18T01:20:55.318Z,24.16
2022-08-18T01:23:41.725Z,24.17
2022-08-18T01:26:30.379Z,24.16
2022-08-18T01:29:19.363Z,24.15
2022-08-18T01:32:05.826Z,24.13
2022-08-18T01:34:52.397Z,24.10
2022-08-18T01:37:38.525Z,24.12
2022-08-18T01:41:21.187Z,24.09
2022-08-18T01:43:31.178Z,24.06
2022-08-18T01:46:20.824Z,24.04
2022-08-18T01:49:08.546Z,24.03
2022-08-18T01:51:55.753Z,24.04
2022-08-18T01:54:43.311Z,24.05
2022-08-18T01:57:30.517Z,24.03
2022-08-18T02:00:18.151Z,23.97
2022-08-18T02:03:10.048Z,23.97
2022-08-18T02:06:00.879Z,23.93
2022-08-18T02:08:53.542Z,23.87
2022-08-18T02:11:40.784Z,23.92
2022-08-18T02:14:58.713Z,23.88
2022-08-18T02:17:46.203Z,23.87
2022-08-18T02:20:32.321Z,23.81
2022-08-18T02:23:18.164Z,23.80
2022-08-18T02:26:08.554Z,23.78
2022-08-18T02:28:54.262Z,23.71
2022-08-18T02:31:40.068Z,23.71
2022-08-18T02:34:25.923Z,23.75
2022-08-18T02:37:15.362Z,23.70
2022-08-18T02:40:01.456Z,23.69
2022-08-18T02:42:47.649Z,23.67
2022-08-18T02:45:33.526Z,23.64
2022-08-18T02:48:40.050Z,23.62
2022-08-18T02:51:26.972Z,23.64
2022-08-18T02:54:12.832Z,23.58
2022-08-18T02:56:59.005Z,23.62
2022-08-18T02:59:47.452Z,23.52
2022-08-18T03:02:34.540Z,23.46
2022-08-18T03:05:20.582Z,23.54
2022-08-18T03:08:06.636Z,23.52
2022-08-18T03:10:54.740Z,23.43
2022-08-18T03:13:40.619Z,23.45
2022-08-18T03:16:26.641Z,23.45
2022-08-18T03:19:16.248Z,23.36
2022-08-18T03:22:03.082Z,23.32
2022-08-18T03:24:49.250Z,23.40
2022-08-18T03:27:35.107Z,23.34
2022-08-18T03:30:21.274Z,23.39
2022-08-18T03:33:07.034Z,23.36
2022-08-18T03:35:54.925Z,23.32
2022-08-18T03:38:43.440Z,23.37
2022-08-18T03:41:57.192Z,23.32
2022-08-18T03:44:39.850Z,23.30
2022-08-18T03:47:27.457Z,23.31
2022-08-18T03:50:14.074Z,23.19
2022-08-18T03:53:00.503Z,23.20
2022-08-18T03:55:46.167Z,23.22
2022-08-18T03:58:32.111Z,23.22
2022-08-18T04:01:25.714Z,23.27
2022-08-18T04:04:19.628Z,23.21
2022-08-18T04:07:10.778Z,23.27
2022-08-18T04:09:58.941Z,23.23
2022-08-18T04:12:45.929Z,23.19
2022-08-18T04:15:32.782Z,23.17
2022-08-18T04:18:19.577Z,23.20
2022-08-18T04:21:10.094Z,23.18
2022-08-18T04:23:55.955Z,23.23
2022-08-18T04:26:46.095Z,23.26
2022-08-18T04:29:32.332Z,23.29
2022-08-18T04:32:19.490Z,23.27
2022-08-18T04:35:13.972Z,23.33
2022-08-18T04:38:02.146Z,23.24
2022-08-18T04:40:48.182Z,23.33
2022-08-18T04:43:34.618Z,23.23
2022-08-18T04:46:24.034Z,23.28
2022-08-18T04:49:12.022Z,23.30
2022-08-18T04:52:36.334Z,23.29
2022-08-18T04:55:24.831Z,23.30
2022-08-18T04:58:10.632Z,23.30
2022-08-18T05:00:59.073Z,23.34
2022-08-18T05:03:50.226Z,23.34
2022-08-18T05:06:36.363Z,23.32
2022-08-18T05:09:23.141Z,23.41
2022-08-18T05:12:13.472Z,23.43
2022-08-18T05:14:59.559Z,23.44
2022-08-18T05:17:50.498Z,23.43
2022-08-18T05:20:40.861Z,23.48
2022-08-18T05:23:29.659Z,23.47
2022-08-18T05:26:17.191Z,23.46
2022-08-18T05:29:18.957Z,23.55
2022-08-18T05:32:36.967Z,23.59
2022-08-18T05:35:25.658Z,23.60
2022-08-18T05:38:24.852Z,23.62
2022-08-18T05:41:13.654Z,23.62
2022-08-18T05:44:01.156Z,23.67
2022-08-18T05:47:18.790Z,23.62
2022-08-18T05:50:11.085Z,23.63
2022-08-18T05:53:00.113Z,23.67
2022-08-18T05:56:25.062Z,23.63
2022-08-18T05:59:14.828Z,23.66
2022-08-18T06:02:36.283Z,23.64
2022-08-18T06:05:44.135Z,23.74
2022-08-18T06:08:42.664Z,23.74
2022-08-18T06:11:28.462Z,23.79
2022-08-18T06:14:14.610Z,23.80
2022-08-18T06:17:20.720Z,23.87
2022-08-18T06:20:27.321Z,23.90
2022-08-18T06:23:28.064Z,23.94
2022-08-18T06:26:40.394Z,23.94
2022-08-18T06:29:29.929Z,24.00
2022-08-18T06:32:54.982Z,23.99
2022-08-18T06:35:52.976Z,24.03
2022-08-18T06:38:47.876Z,24.07
2022-08-18T06:41:42.747Z,24.11
2022-08-18T06:44:52.349Z,24.10
2022-08-18T06:47:44.725Z,24.12
2022-08-18T06:50:43.514Z,24.16
2022-08-18T06:53:57.717Z,24.22
2022-08-18T06:56:43.382Z,24.28
2022-08-18T06:59:30.782Z,24.31
2022-08-18T07:02:24.421Z,24.30
2022-08-18T07:05:20.732Z,24.33
2022-08-18T07:08:11.905Z,24.35
2022-08-18T07:11:13.518Z,24.44
2022-08-18T07:14:23.418Z,24.46
2022-08-18T07:17:13.917Z,24.52
2022-08-18T07:20:24.230Z,24.56
2022-08-18T07:23:40.059Z,24.56
2022-08-18T07:26:26.083Z,24.62
2022-08-18T07:29:16.179Z,24.63
2022-08-18T07:32:15.803Z,24.72
2022-08-18T07:35:19.749Z,24.74
2022-08-18T07:38:42.121Z,24.80
2022-08-18T07:41:33.944Z,24.84
2022-08-18T07:44:55.335Z,24.85
2022-08-18T07:48:15.940Z,24.89
2022-08-18T07:51:17.335Z,25.00
2022-08-18T07:54:49.258Z,25.03
2022-08-18T07:57:46.813Z,25.09
2022-08-18T08:04:02.998Z,25.13
2022-08-18T08:07:24.580Z,25.21
2022-08-18T08:10:35.936Z,25.27
2022-08-18T08:13:55.162Z,25.26
2022-08-18T08:16:58.275Z,25.36
2022-08-18T08:20:01.868Z,25.43
2022-08-18T08:23:24.176Z,25.49
2022-08-18T08:26:45.077Z,25.55
2022-08-18T08:30:12.132Z,25.60
2022-08-18T08:33:25.648Z,25.63
2022-08-18T08:36:17.303Z,25.65
2022-08-18T08:39:34.830Z,25.71
2022-08-18T08:42:30.638Z,25.75
2022-08-18T08:45:29.828Z,25.78
2022-08-18T08:48:28.783Z,25.86
2022-08-18T08:51:31.691Z,25.94
2022-08-18T08:54:45.215Z,25.99
2022-08-18T08:57:36.145Z,26.04
2022-08-18T09:00:22.552Z,26.14
2022-08-18T09:03:08.385Z,26.21
2022-08-18T09:06:00.209Z,26.27
2022-08-18T09:09:12.299Z,26.32
2022-08-18T09:12:04.793Z,26.39
2022-08-18T09:15:30.067Z,26.42
2022-08-18T09:18:19.465Z,26.52
2022-08-18T09:21:26.535Z,26.57
2022-08-18T09:24:48.413Z,26.63
2022-08-18T09:28:11.703Z,26.69
2022-08-18T09:31:21.225Z,26.71
2022-08-18T09:34:34.147Z,26.75
2022-08-18T09:37:26.544Z,26.86
2022-08-18T09:41:01.956Z,26.88
2022-08-18T09:47:23.807Z,27.05
2022-08-18T09:50:24.601Z,27.03
2022-08-18T09:50:38.376Z,26.96
2022-08-18T09:53:38.156Z,26.93
2022-08-18T09:56:53.942Z,26.73
2022-08-18T09:59:49.604Z,26.60
2022-08-18T10:02:36.993Z,26.52
2022-08-18T10:05:27.698Z,26.44
2022-08-18T10:08:21.625Z,26.46
2022-08-18T10:11:32.232Z,26.47
2022-08-18T10:14:47.879Z,26.50
2022-08-18T10:22:11.157Z,26.61
2022-08-18T10:25:09.201Z,26.56
2022-08-18T10:28:50.272Z,26.46
2022-08-18T10:31:59.838Z,26.46
2022-08-18T10:34:53.199Z,26.52
2022-08-18T10:41:26.284Z,26.67
2022-08-18T10:44:28.864Z,26.76
2022-08-18T10:47:33.486Z,26.95
2022-08-18T10:50:23.257Z,27.09
2022-08-18T10:53:44.042Z,27.23
2022-08-18T10:56:45.528Z,27.34
2022-08-18T12:14:35.316Z,30.59
2022-08-18T12:17:52.404Z,30.86
2022-08-18T12:20:39.220Z,31.05
2022-08-18T12:23:25.174Z,31.29
2022-08-18T12:26:26.867Z,31.48
2022-08-18T12:38:56.095Z,32.44
2022-08-18T12:41:42.745Z,32.51
2022-08-18T12:44:29.031Z,32.71
2022-08-18T12:47:20.721Z,32.84
2022-08-18T12:50:08.793Z,32.96
2022-08-18T12:52:56.923Z,33.11
2022-08-18T12:55:45.686Z,33.29
2022-08-18T12:58:31.763Z,33.45
2022-08-18T13:01:25.213Z,33.64
2022-08-18T13:04:13.995Z,33.84
2022-08-18T13:07:05.799Z,34.07
2022-08-18T13:09:53.743Z,34.26
2022-08-18T13:12:40.479Z,34.42
2022-08-18T13:15:28.917Z,34.58
2022-08-18T13:18:16.735Z,34.78
2022-08-18T13:21:07.341Z,34.93
2022-08-18T13:23:53.355Z,35.11
2022-08-18T13:26:42.764Z,35.30
2022-08-18T13:29:33.656Z,35.43
2022-08-18T13:32:19.774Z,35.53
2022-08-18T13:35:09.139Z,35.60
2022-08-18T13:37:59.764Z,35.73
2022-08-18T13:40:47.168Z,35.81
2022-08-18T13:43:39.279Z,35.88
2022-08-18T13:46:29.833Z,35.98
2022-08-18T13:49:23.595Z,36.08
2022-08-18T13:52:33.092Z,36.19
2022-08-18T13:55:20.696Z,36.24
2022-08-18T13:58:17.405Z,36.31
2022-08-18T14:01:42.238Z,36.36
2022-08-18T14:04:20.245Z,36.39
2022-08-18T14:07:11.076Z,36.39
2022-08-18T14:09:59.144Z,36.29
2022-08-18T14:12:56.938Z,36.35
2022-08-18T14:15:48.046Z,36.24
2022-08-18T14:18:37.429Z,36.31
2022-08-18T14:21:44.806Z,36.37
2022-08-18T14:24:53.913Z,36.46
2022-08-18T14:27:40.048Z,36.59
2022-08-18T14:30:27.440Z,36.74
2022-08-18T14:36:05.858Z,37.13
2022-08-18T14:38:53.088Z,37.38
2022-08-18T14:41:41.024Z,37.75
2022-08-18T14:44:41.611Z,38.07
2022-08-18T14:47:33.137Z,38.46
2022-08-18T14:50:25.193Z,38.83
2022-08-18T14:53:15.065Z,39.19
2022-08-18T14:56:01.267Z,39.37
2022-08-18T14:58:47.708Z,39.51
2022-08-18T15:01:36.596Z,39.68
2022-08-18T15:04:30.439Z,39.78
2022-08-18T15:07:18.220Z,39.85
2022-08-18T15:10:16.131Z,40.04
2022-08-18T15:13:03.267Z,40.22
2022-08-18T15:15:51.820Z,40.40
2022-08-18T15:18:38.069Z,40.57
2022-08-18T15:21:42.568Z,40.66
2022-08-18T15:24:48.197Z,40.78
2022-08-18T15:27:42.303Z,40.83
2022-08-18T15:30:51.359Z,40.79
2022-08-18T15:33:37.628Z,40.70
2022-08-18T15:36:29.138Z,40.60
2022-08-18T15:39:15.928Z,40.49
2022-08-18T15:42:15.287Z,40.38
2022-08-18T15:45:11.906Z,40.08
2022-08-18T15:48:04.282Z,39.76
2022-08-18T15:50:52.027Z,39.43
2022-08-18T15:53:44.812Z,39.04
2022-08-18T15:56:34.130Z,38.57
2022-08-18T15:59:19.853Z,38.02
2022-08-18T16:02:11.838Z,37.57
2022-08-18T16:04:58.135Z,37.13
2022-08-18T16:07:46.076Z,36.72
2022-08-18T16:10:33.568Z,36.36
2022-08-18T16:13:20.108Z,36.00
2022-08-18T16:16:11.467Z,35.68
2022-08-18T16:18:57.558Z,35.30
2022-08-18T16:21:43.727Z,35.02
2022-08-18T16:24:29.518Z,34.74
2022-08-18T16:27:15.563Z,34.57
2022-08-18T16:30:04.705Z,34.34
2022-08-18T16:32:51.679Z,34.11
2022-08-18T16:35:38.071Z,33.88
2022-08-18T16:38:25.093Z,33.74
2022-08-18T16:41:15.091Z,33.59
2022-08-18T16:44:01.057Z,33.42
2022-08-18T16:46:50.121Z,33.23
2022-08-18T16:49:35.943Z,33.09
2022-08-18T16:52:21.771Z,32.95
2022-08-18T16:55:09.862Z,32.81
2022-08-18T16:58:15.694Z,32.63
2022-08-18T17:01:21.657Z,32.47
2022-08-18T17:04:13.521Z,32.35
2022-08-18T17:07:03.205Z,32.25
2022-08-18T17:09:48.995Z,32.08
2022-08-18T17:12:36.026Z,32.03
2022-08-18T17:15:21.782Z,31.93
2022-08-18T17:18:08.112Z,31.83
2022-08-18T17:20:55.507Z,31.71
2022-08-18T17:23:42.187Z,31.65
2022-08-18T17:26:53.087Z,31.60
2022-08-18T17:30:03.576Z,31.50
2022-08-18T17:33:06.170Z,31.45
2022-08-18T17:35:54.231Z,31.35
2022-08-18T17:38:50.227Z,31.33
2022-08-18T17:42:01.048Z,31.25
2022-08-18T17:44:52.296Z,31.21
2022-08-18T17:48:00.877Z,31.15
2022-08-18T17:51:08.545Z,31.05
2022-08-18T17:53:54.650Z,31.02
2022-08-18T17:56:45.562Z,30.98
2022-08-18T18:00:06.138Z,30.92
2022-08-18T18:03:01.307Z,30.85
2022-08-18T18:05:53.325Z,30.78
2022-08-18T18:08:55.535Z,30.73
2022-08-18T18:11:47.167Z,30.61
2022-08-18T18:14:38.274Z,30.60
2022-08-18T18:17:32.557Z,30.55
2022-08-18T18:20:38.489Z,30.44
2022-08-18T18:23:29.750Z,30.38
2022-08-18T18:26:29.725Z,30.32
2022-08-18T18:29:33.300Z,30.26
2022-08-18T18:32:38.915Z,30.17
2022-08-18T18:35:34.417Z,30.11
2022-08-18T18:39:22.274Z,30.04
2022-08-18T18:42:35.147Z,29.91
2022-08-18T18:45:31.244Z,29.94
2022-08-18T18:48:48.146Z,29.86
2022-08-18T18:51:50.840Z,29.76
2022-08-18T18:54:49.696Z,29.71
2022-08-18T18:57:49.573Z,29.63
2022-08-18T19:00:53.990Z,29.57
2022-08-18T19:03:46.344Z,29.49
2022-08-18T19:06:44.120Z,29.47
2022-08-18T20:09:50.193Z,28.09
2022-08-18T20:13:00.835Z,28.10
2022-08-18T20:16:15.194Z,28.10
2022-08-18T20:19:01.604Z,28.13
2022-08-18T20:22:07.717Z,28.09
2022-08-18T20:25:20.091Z,28.07
2022-08-18T20:28:12.829Z,28.05
2022-08-18T20:31:17.053Z,27.99
2022-08-18T20:34:14.031Z,28.02
2022-08-18T20:37:08.156Z,27.98
2022-08-18T20:39:55.598Z,27.97
2022-08-18T20:42:55.749Z,27.91
2022-08-18T20:45:46.126Z,27.92
2022-08-18T20:49:14.126Z,27.89
2022-08-18T20:52:13.353Z,27.88
2022-08-18T20:55:35.001Z,27.83
2022-08-18T20:58:25.925Z,27.83
2022-08-18T21:01:23.129Z,27.78
2022-08-18T21:09:00.889Z,27.70
2022-08-18T21:11:47.631Z,27.66
2022-08-18T21:14:34.041Z,27.61
2022-08-18T21:17:20.518Z,27.62
2022-08-18T21:20:19.320Z,27.58
2022-08-18T21:23:13.313Z,27.49
2022-08-18T21:26:06.603Z,27.45
2022-08-18T21:29:09.019Z,27.41
2022-08-18T21:32:08.054Z,27.36
2022-08-18T21:34:55.233Z,27.33
2022-08-18T21:38:00.162Z,27.31
2022-08-18T21:40:48.648Z,27.28
2022-08-18T21:43:49.358Z,27.24
2022-08-18T21:46:35.869Z,27.19
2022-08-18T21:49:27.553Z,27.17
2022-08-18T21:52:24.298Z,27.13
2022-08-18T21:55:21.712Z,27.08
2022-08-18T21:58:10.446Z,27.11
2022-08-18T22:01:26.196Z,27.06
2022-08-18T22:04:25.174Z,27.05
2022-08-18T22:07:34.748Z,27.05
2022-08-18T22:10:48.243Z,26.97
2022-08-18T22:13:59.763Z,26.91
2022-08-18T22:16:48.144Z,26.89
2022-08-18T22:19:34.293Z,26.82
2022-08-18T22:22:40.162Z,26.84
2022-08-18T22:25:26.661Z,26.74
2022-08-18T22:28:12.521Z,26.63
2022-08-18T22:31:00.367Z,26.70
2022-08-18T22:33:46.499Z,26.67
2022-08-18T22:36:36.396Z,26.63
2022-08-18T22:39:51.950Z,26.59
2022-08-18T22:42:39.075Z,26.59
2022-08-18T22:45:25.302Z,26.58
2022-08-18T22:48:11.761Z,26.56
2022-08-18T22:50:58.408Z,26.48
2022-08-18T22:53:46.679Z,26.48
2022-08-18T22:56:34.415Z,26.47
2022-08-18T22:59:21.224Z,26.42
2022-08-18T23:02:07.803Z,26.36
2022-08-18T23:04:53.513Z,26.31
2022-08-18T23:07:39.329Z,26.24
2022-08-18T23:10:26.634Z,26.24
2022-08-18T23:13:12.823Z,26.17
2022-08-18T23:16:30.921Z,26.19
2022-08-18T23:19:05.827Z,26.18
2022-08-18T23:21:52.471Z,26.11
2022-08-18T23:24:38.797Z,26.13
2022-08-18T23:27:24.882Z,26.14
2022-08-18T23:30:12.274Z,26.11
2022-08-18T23:32:58.372Z,26.08
2022-08-18T23:35:44.150Z,26.05
2022-08-18T23:38:31.779Z,26.00
2022-08-18T23:41:17.603Z,25.98
2022-08-18T23:44:03.742Z,25.95
2022-08-18T23:46:49.576Z,25.93
2022-08-18T23:49:36.827Z,25.87
2022-08-18T23:52:22.970Z,25.82
2022-08-18T23:55:12.515Z,25.81
2022-08-18T23:57:58.193Z,25.75
